createdAt,value
2022-07-29T03:46:53.062Z,20.50
2022-07-29T03:50:06.220Z,20.50
2022-07-29T03:53:14.533Z,20.02
2022-07-29T03:56:21.889Z,20.04
2022-07-29T03:59:24.843Z,20.11
2022-07-29T04:02:30.745Z,20.15
2022-07-29T04:05:34.565Z,20.22
2022-07-29T04:08:37.133Z,20.34
2022-07-29T04:12:02.383Z,20.41
2022-07-29T04:15:06.950Z,20.51
2022-07-29T04:18:10.023Z,20.58
2022-07-29T04:21:12.656Z,20.63
2022-07-29T04:24:16.335Z,20.67
2022-07-29T04:27:19.148Z,20.72
2022-07-29T04:30:24.031Z,20.82
2022-07-29T04:33:27.112Z,20.94
2022-07-29T04:36:30.273Z,21.00
2022-07-29T04:39:32.703Z,21.13
2022-07-29T04:42:35.481Z,21.24
2022-07-29T04:45:49.015Z,21.39
2022-07-29T04:48:52.203Z,21.52
2022-07-29T04:51:54.958Z,21.67
2022-07-29T04:54:57.842Z,21.71
2022-07-29T04:58:00.446Z,21.84
2022-07-29T05:01:04.836Z,21.97
2022-07-29T05:04:07.721Z,22.11
2022-07-29T05:07:10.653Z,22.24
2022-07-29T05:10:13.106Z,22.45
2022-07-29T05:13:17.114Z,22.61
2022-07-29T05:16:19.649Z,22.82
2022-07-29T05:19:22.624Z,23.01
2022-07-29T05:22:25.183Z,23.14
2022-07-29T05:25:43.470Z,23.23
2022-07-29T05:28:47.141Z,23.33
2022-07-29T05:31:49.985Z,23.44
2022-07-29T05:34:52.561Z,23.62
2022-07-29T05:37:55.266Z,23.70
2022-07-29T05:41:00.175Z,23.78
2022-07-29T05:44:03.269Z,23.84
2022-07-29T05:47:06.136Z,23.92
2022-07-29T05:50:09.753Z,23.99
2022-07-29T05:53:19.597Z,24.06
2022-07-29T05:56:23.600Z,24.20
2022-07-29T05:59:30.166Z,24.27
2022-07-29T06:02:33.250Z,24.35
2022-07-29T06:05:36.285Z,24.38
2022-07-29T06:08:39.484Z,24.39
2022-07-29T06:11:42.587Z,24.48
2022-07-29T06:14:45.125Z,24.62
2022-07-29T06:18:00.207Z,24.66
2022-07-29T06:21:09.610Z,24.75
2022-07-29T06:24:14.044Z,24.83
2022-07-29T06:27:17.340Z,24.93
2022-07-29T06:30:20.315Z,25.07
2022-07-29T06:33:22.791Z,25.22
2022-07-29T06:36:25.974Z,25.38
2022-07-29T06:39:28.959Z,25.55
2022-07-29T06:42:32.069Z,25.49
2022-07-29T06:45:35.778Z,25.56
2022-07-29T06:48:40.063Z,25.71
2022-07-29T06:51:42.637Z,25.90
2022-07-29T06:54:49.025Z,26.19
2022-07-29T06:57:51.647Z,26.36
2022-07-29T07:00:55.077Z,26.60
2022-07-29T07:03:57.755Z,26.78
2022-07-29T07:07:01.533Z,27.09
2022-07-29T07:10:04.693Z,27.38
2022-07-29T07:13:09.904Z,27.48
2022-07-29T07:16:13.672Z,27.63
2022-07-29T07:19:16.601Z,27.68
2022-07-29T07:22:19.173Z,27.94
2022-07-29T07:25:24.986Z,28.34
2022-07-29T07:28:27.535Z,28.68
2022-07-29T07:31:30.534Z,28.65
2022-07-29T07:34:33.169Z,28.53
2022-07-29T07:37:36.771Z,28.46
2022-07-29T07:40:39.484Z,28.53
2022-07-29T07:43:42.339Z,28.50
2022-07-29T07:46:45.950Z,28.33
2022-07-29T07:49:48.823Z,28.27
2022-07-29T07:52:54.113Z,28.40
2022-07-29T07:56:13.063Z,28.62
2022-07-29T07:59:15.809Z,28.65
2022-07-29T08:02:18.736Z,28.61
2022-07-29T08:05:21.814Z,28.69
2022-07-29T08:08:24.447Z,28.73
2022-07-29T08:11:27.383Z,28.84
2022-07-29T08:14:33.772Z,28.98
2022-07-29T08:17:36.720Z,29.10
2022-07-29T08:20:39.994Z,29.10
2022-07-29T08:23:58.937Z,29.36
2022-07-29T08:27:03.463Z,29.47
2022-07-29T08:30:08.150Z,29.40
2022-07-29T08:33:10.900Z,29.34
2022-07-29T08:36:14.202Z,29.38
2022-07-29T08:39:17.002Z,29.44
2022-07-29T08:42:20.148Z,29.37
2022-07-29T08:45:24.806Z,29.64
2022-07-29T08:48:27.750Z,29.93
2022-07-29T08:51:49.267Z,30.14
2022-07-29T08:54:56.251Z,30.11
2022-07-29T08:57:59.667Z,30.18
2022-07-29T09:01:03.951Z,30.14
2022-07-29T09:04:12.960Z,30.22
2022-07-29T09:07:17.288Z,30.37
2022-07-29T09:10:19.997Z,30.56
2022-07-29T09:13:23.648Z,30.61
2022-07-29T09:16:50.806Z,30.61
2022-07-29T09:19:49.299Z,30.82
2022-07-29T09:22:56.507Z,31.05
2022-07-29T09:26:06.992Z,31.05
2022-07-29T09:29:15.177Z,31.22
2022-07-29T09:32:17.966Z,31.32
2022-07-29T09:35:23.991Z,31.57
2022-07-29T09:38:26.879Z,31.77
2022-07-29T09:41:30.008Z,31.92
2022-07-29T09:44:47.701Z,32.04
2022-07-29T09:47:50.405Z,32.07
2022-07-29T09:50:53.562Z,32.15
2022-07-29T09:53:56.675Z,31.92
2022-07-29T09:56:59.472Z,31.96
2022-07-29T10:00:07.950Z,32.12
2022-07-29T10:03:16.683Z,32.28
2022-07-29T10:06:19.662Z,32.04
2022-07-29T10:09:22.452Z,32.32
2022-07-29T10:12:25.520Z,32.44
2022-07-29T10:15:30.818Z,32.12
2022-07-29T10:18:35.200Z,31.91
2022-07-29T10:21:40.738Z,31.59
2022-07-29T10:24:43.723Z,31.40
2022-07-29T10:27:48.503Z,31.29
2022-07-29T10:30:53.684Z,31.45
2022-07-29T10:34:14.734Z,31.60
2022-07-29T10:37:45.900Z,32.22
2022-07-29T10:41:27.597Z,32.85
2022-07-29T10:44:35.476Z,32.65
2022-07-29T10:47:38.161Z,32.16
2022-07-29T10:50:57.905Z,31.95
2022-07-29T10:54:05.272Z,32.01
2022-07-29T10:57:17.384Z,32.07
2022-07-29T11:00:31.469Z,32.07
2022-07-29T11:03:53.513Z,32.36
2022-07-29T11:07:05.513Z,33.03
2022-07-29T11:10:14.503Z,33.96
2022-07-29T11:13:47.244Z,34.32
2022-07-29T11:17:05.968Z,35.29
2022-07-29T11:20:36.545Z,35.31
2022-07-29T11:23:43.342Z,35.72
2022-07-29T11:27:31.729Z,36.10
2022-07-29T11:30:52.167Z,36.49
2022-07-29T11:33:56.943Z,36.73
2022-07-29T11:37:12.591Z,36.78
2022-07-29T11:40:16.602Z,36.99
2022-07-29T11:43:50.618Z,36.93
2022-07-29T11:46:54.288Z,36.99
2022-07-29T11:49:59.834Z,37.14
2022-07-29T11:53:13.574Z,38.00
2022-07-29T11:56:22.021Z,38.64
2022-07-29T11:59:33.129Z,39.47
2022-07-29T12:02:48.558Z,39.57
2022-07-29T12:05:52.097Z,39.79
2022-07-29T12:08:54.741Z,39.66
2022-07-29T12:12:04.648Z,40.65
2022-07-29T12:15:13.176Z,41.38
2022-07-29T12:18:18.925Z,41.59
2022-07-29T12:21:21.515Z,40.86
2022-07-29T12:24:43.636Z,43.19
2022-07-29T12:27:48.439Z,43.46
2022-07-29T12:30:52.531Z,43.44
2022-07-29T12:33:55.335Z,45.24
2022-07-29T12:37:01.911Z,47.84
2022-07-29T12:40:06.257Z,48.79
2022-07-29T12:43:17.412Z,50.26
2022-07-29T12:46:20.071Z,51.10
2022-07-29T12:49:23.992Z,51.82
2022-07-29T12:52:32.075Z,51.45
2022-07-29T12:55:55.424Z,52.25
2022-07-29T12:58:58.469Z,52.48
2022-07-29T13:02:01.569Z,53.17
2022-07-29T13:05:06.337Z,52.76
2022-07-29T13:08:21.878Z,53.47
2022-07-29T13:11:36.644Z,54.61
2022-07-29T13:14:51.140Z,54.82
2022-07-29T13:17:53.942Z,54.58
2022-07-29T13:20:58.009Z,55.53
2022-07-29T13:24:00.906Z,54.93
2022-07-29T13:27:05.515Z,54.67
2022-07-29T13:30:10.694Z,56.03
2022-07-29T13:33:15.061Z,56.97
2022-07-29T13:36:17.955Z,57.02
2022-07-29T13:39:20.757Z,57.16
2022-07-29T13:42:24.236Z,54.84
2022-07-29T13:45:29.240Z,50.14
2022-07-29T13:48:31.945Z,45.66
2022-07-29T13:51:34.822Z,42.71
2022-07-29T13:54:42.022Z,41.03
2022-07-29T13:57:45.362Z,42.79
2022-07-29T14:00:48.331Z,48.42
2022-07-29T14:03:51.418Z,52.77
2022-07-29T14:06:54.039Z,55.74
2022-07-29T14:09:57.870Z,55.15
2022-07-29T14:13:00.454Z,50.61
2022-07-29T14:16:03.524Z,46.06
2022-07-29T14:19:06.996Z,44.50
2022-07-29T14:22:10.961Z,47.34
2022-07-29T14:25:15.565Z,51.34
2022-07-29T14:28:18.736Z,54.66
2022-07-29T14:31:21.454Z,56.54
2022-07-29T14:34:24.469Z,57.35
2022-07-29T14:37:26.980Z,58.27
2022-07-29T14:40:30.135Z,58.09
2022-07-29T14:43:32.992Z,58.94
2022-07-29T14:46:36.164Z,57.55
2022-07-29T14:49:38.773Z,58.55
2022-07-29T14:52:41.682Z,59.45
2022-07-29T14:55:45.285Z,60.62
2022-07-29T14:58:49.085Z,61.76
2022-07-29T15:01:54.939Z,60.76
2022-07-29T15:04:58.012Z,59.76
2022-07-29T15:08:00.756Z,60.03
2022-07-29T15:11:03.614Z,60.17
2022-07-29T15:14:07.257Z,61.27
